sensor_id;sensor_type;location;lat;lon;timestamp;P1;durP1;ratioP1;P2;durP2;ratioP2
77400;SDS011;66855;45.414;11.082;2023-04-30T00:02:07;16.30;;;12.40;;
77400;SDS011;66855;45.414;11.082;2023-04-30T00:04:36;17.00;;;12.60;;
77400;SDS011;66855;45.414;11.082;2023-04-30T00:07:02;19.30;;;13.30;;
77400;SDS011;66855;45.414;11.082;2023-04-30T00:09:29;17.10;;;12.20;;
77400;SDS011;66855;45.414;11.082;2023-04-30T00:11:56;19.30;;;12.80;;
77400;SDS011;66855;45.414;11.082;2023-04-30T00:14:23;19.80;;;13.00;;
77400;SDS011;66855;45.414;11.082;2023-04-30T00:16:49;18.10;;;12.20;;
77400;SDS011;66855;45.414;11.082;2023-04-30T00:19:16;18.10;;;12.70;;
77400;SDS011;66855;45.414;11.082;2023-04-30T00:21:43;18.50;;;13.30;;
77400;SDS011;66855;45.414;11.082;2023-04-30T00:24:10;16.10;;;11.30;;
77400;SDS011;66855;45.414;11.082;2023-04-30T00:26:36;18.60;;;11.80;;
77400;SDS011;66855;45.414;11.082;2023-04-30T00:29:03;16.90;;;11.20;;
77400;SDS011;66855;45.414;11.082;2023-04-30T00:31:31;16.30;;;12.30;;
77400;SDS011;66855;45.414;11.082;2023-04-30T00:33:57;16.30;;;11.80;;
77400;SDS011;66855;45.414;11.082;2023-04-30T00:36:24;19.40;;;13.20;;
77400;SDS011;66855;45.414;11.082;2023-04-30T00:38:51;17.80;;;12.30;;
77400;SDS011;66855;45.414;11.082;2023-04-30T00:41:18;17.40;;;12.70;;
77400;SDS011;66855;45.414;11.082;2023-04-30T00:43:46;17.90;;;12.10;;
77400;SDS011;66855;45.414;11.082;2023-04-30T00:46:13;16.90;;;12.50;;
77400;SDS011;66855;45.414;11.082;2023-04-30T00:48:40;15.70;;;12.30;;
77400;SDS011;66855;45.414;11.082;2023-04-30T00:51:06;17.90;;;12.20;;
77400;SDS011;66855;45.414;11.082;2023-04-30T00:53:33;19.80;;;12.50;;
77400;SDS011;66855;45.414;11.082;2023-04-30T00:56:00;17.50;;;12.30;;
77400;SDS011;66855;45.414;11.082;2023-04-30T00:58:28;16.80;;;11.90;;
77400;SDS011;66855;45.414;11.082;2023-04-30T01:00:55;18.60;;;12.00;;
77400;SDS011;66855;45.414;11.082;2023-04-30T01:03:22;17.60;;;11.10;;
77400;SDS011;66855;45.414;11.082;2023-04-30T01:05:49;15.40;;;11.50;;
77400;SDS011;66855;45.414;11.082;2023-04-30T01:08:16;20.10;;;12.10;;
77400;SDS011;66855;45.414;11.082;2023-04-30T01:11:06;21.20;;;13.70;;
77400;SDS011;66855;45.414;11.082;2023-04-30T01:16:39;19.00;;;13.50;;
77400;SDS011;66855;45.414;11.082;2023-04-30T01:19:11;19.20;;;14.10;;
77400;SDS011;66855;45.414;11.082;2023-04-30T01:21:51;19.80;;;12.70;;
77400;SDS011;66855;45.414;11.082;2023-04-30T01:30:22;19.80;;;14.00;;
77400;SDS011;66855;45.414;11.082;2023-04-30T01:32:49;17.90;;;12.80;;
77400;SDS011;66855;45.414;11.082;2023-04-30T01:35:16;17.30;;;13.50;;
77400;SDS011;66855;45.414;11.082;2023-04-30T01:43:44;15.90;;;10.60;;
77400;SDS011;66855;45.414;11.082;2023-04-30T01:46:23;20.70;;;12.60;;
77400;SDS011;66855;45.414;11.082;2023-04-30T01:49:14;18.10;;;13.20;;
77400;SDS011;66855;45.414;11.082;2023-04-30T01:52:36;17.20;;;12.60;;
77400;SDS011;66855;45.414;11.082;2023-04-30T01:54:59;20.60;;;13.20;;
77400;SDS011;66855;45.414;11.082;2023-04-30T01:57:28;18.00;;;12.30;;
77400;SDS011;66855;45.414;11.082;2023-04-30T02:00:00;18.40;;;12.40;;
77400;SDS011;66855;45.414;11.082;2023-04-30T02:02:26;17.20;;;12.60;;
77400;SDS011;66855;45.414;11.082;2023-04-30T02:04:53;18.60;;;13.60;;
77400;SDS011;66855;45.414;11.082;2023-04-30T02:07:40;20.10;;;13.80;;
77400;SDS011;66855;45.414;11.082;2023-04-30T02:10:08;21.60;;;13.90;;
77400;SDS011;66855;45.414;11.082;2023-04-30T02:12:37;25.00;;;15.60;;
77400;SDS011;66855;45.414;11.082;2023-04-30T02:15:05;23.00;;;14.30;;
77400;SDS011;66855;45.414;11.082;2023-04-30T02:17:32;21.60;;;15.00;;
77400;SDS011;66855;45.414;11.082;2023-04-30T02:19:59;19.00;;;13.40;;
77400;SDS011;66855;45.414;11.082;2023-04-30T02:22:26;20.10;;;14.20;;
77400;SDS011;66855;45.414;11.082;2023-04-30T02:24:52;17.60;;;12.60;;
77400;SDS011;66855;45.414;11.082;2023-04-30T02:27:21;18.20;;;13.00;;
77400;SDS011;66855;45.414;11.082;2023-04-30T02:29:49;18.60;;;12.80;;
77400;SDS011;66855;45.414;11.082;2023-04-30T02:32:16;19.90;;;14.00;;
77400;SDS011;66855;45.414;11.082;2023-04-30T02:34:43;20.40;;;15.50;;
77400;SDS011;66855;45.414;11.082;2023-04-30T02:37:10;22.00;;;14.50;;
77400;SDS011;66855;45.414;11.082;2023-04-30T02:39:37;22.50;;;15.10;;
77400;SDS011;66855;45.414;11.082;2023-04-30T02:42:03;18.20;;;13.70;;
77400;SDS011;66855;45.414;11.082;2023-04-30T02:44:32;21.80;;;15.00;;
77400;SDS011;66855;45.414;11.082;2023-04-30T02:46:59;18.90;;;13.90;;
77400;SDS011;66855;45.414;11.082;2023-04-30T02:49:27;18.70;;;14.20;;
77400;SDS011;66855;45.414;11.082;2023-04-30T02:51:54;20.00;;;14.00;;
77400;SDS011;66855;45.414;11.082;2023-04-30T02:54:21;17.40;;;13.60;;
77400;SDS011;66855;45.414;11.082;2023-04-30T02:56:47;21.00;;;14.30;;
77400;SDS011;66855;45.414;11.082;2023-04-30T02:59:14;23.90;;;14.60;;
77400;SDS011;66855;45.414;11.082;2023-04-30T03:01:41;20.50;;;14.30;;
77400;SDS011;66855;45.414;11.082;2023-04-30T03:04:08;21.90;;;15.60;;
77400;SDS011;66855;45.414;11.082;2023-04-30T03:06:35;21.70;;;14.30;;
77400;SDS011;66855;45.414;11.082;2023-04-30T03:09:02;20.80;;;15.10;;
77400;SDS011;66855;45.414;11.082;2023-04-30T03:11:29;22.50;;;15.10;;
77400;SDS011;66855;45.414;11.082;2023-04-30T03:13:56;18.10;;;13.70;;
77400;SDS011;66855;45.414;11.082;2023-04-30T03:16:23;23.50;;;16.40;;
77400;SDS011;66855;45.414;11.082;2023-04-30T03:18:50;22.90;;;16.40;;
77400;SDS011;66855;45.414;11.082;2023-04-30T03:21:17;22.90;;;16.70;;
77400;SDS011;66855;45.414;11.082;2023-04-30T03:23:44;21.80;;;15.70;;
77400;SDS011;66855;45.414;11.082;2023-04-30T03:26:11;21.90;;;16.40;;
77400;SDS011;66855;45.414;11.082;2023-04-30T03:28:38;24.70;;;17.10;;
77400;SDS011;66855;45.414;11.082;2023-04-30T03:31:05;24.00;;;17.50;;
77400;SDS011;66855;45.414;11.082;2023-04-30T03:33:32;26.40;;;17.40;;
77400;SDS011;66855;45.414;11.082;2023-04-30T03:35:59;27.00;;;17.70;;
77400;SDS011;66855;45.414;11.082;2023-04-30T03:38:25;26.20;;;17.80;;
77400;SDS011;66855;45.414;11.082;2023-04-30T03:40:52;23.40;;;17.40;;
77400;SDS011;66855;45.414;11.082;2023-04-30T03:43:19;22.40;;;16.20;;
77400;SDS011;66855;45.414;11.082;2023-04-30T03:45:46;24.90;;;16.80;;
77400;SDS011;66855;45.414;11.082;2023-04-30T03:48:13;23.50;;;16.60;;
77400;SDS011;66855;45.414;11.082;2023-04-30T03:50:39;24.40;;;16.90;;
77400;SDS011;66855;45.414;11.082;2023-04-30T03:53:06;25.60;;;17.90;;
77400;SDS011;66855;45.414;11.082;2023-04-30T03:55:33;25.40;;;17.80;;
77400;SDS011;66855;45.414;11.082;2023-04-30T03:58:00;22.10;;;16.60;;
77400;SDS011;66855;45.414;11.082;2023-04-30T04:00:27;22.40;;;15.40;;
77400;SDS011;66855;45.414;11.082;2023-04-30T04:02:56;21.60;;;15.50;;
77400;SDS011;66855;45.414;11.082;2023-04-30T04:07:50;21.60;;;15.30;;
77400;SDS011;66855;45.414;11.082;2023-04-30T04:10:17;26.50;;;16.30;;
77400;SDS011;66855;45.414;11.082;2023-04-30T04:12:44;21.40;;;16.40;;
77400;SDS011;66855;45.414;11.082;2023-04-30T04:15:11;27.70;;;18.40;;
77400;SDS011;66855;45.414;11.082;2023-04-30T04:17:39;27.60;;;17.60;;
77400;SDS011;66855;45.414;11.082;2023-04-30T04:20:06;21.90;;;15.90;;
77400;SDS011;66855;45.414;11.082;2023-04-30T04:22:34;23.60;;;16.00;;
77400;SDS011;66855;45.414;11.082;2023-04-30T04:25:01;21.60;;;15.10;;
77400;SDS011;66855;45.414;11.082;2023-04-30T04:27:29;20.70;;;15.50;;
77400;SDS011;66855;45.414;11.082;2023-04-30T04:29:56;22.50;;;15.50;;
77400;SDS011;66855;45.414;11.082;2023-04-30T04:32:24;22.30;;;15.50;;
77400;SDS011;66855;45.414;11.082;2023-04-30T04:34:50;23.60;;;16.40;;
77400;SDS011;66855;45.414;11.082;2023-04-30T04:39:46;22.60;;;15.80;;
77400;SDS011;66855;45.414;11.082;2023-04-30T04:42:14;22.10;;;14.70;;
77400;SDS011;66855;45.414;11.082;2023-04-30T04:44:43;22.10;;;14.70;;
77400;SDS011;66855;45.414;11.082;2023-04-30T04:47:09;21.40;;;14.60;;
77400;SDS011;66855;45.414;11.082;2023-04-30T04:49:38;20.70;;;14.80;;
77400;SDS011;66855;45.414;11.082;2023-04-30T04:52:05;19.70;;;14.30;;
77400;SDS011;66855;45.414;11.082;2023-04-30T04:54:33;21.40;;;14.10;;
77400;SDS011;66855;45.414;11.082;2023-04-30T04:57:00;19.00;;;14.20;;
77400;SDS011;66855;45.414;11.082;2023-04-30T04:59:28;21.30;;;15.30;;
77400;SDS011;66855;45.414;11.082;2023-04-30T05:01:55;19.10;;;13.60;;
77400;SDS011;66855;45.414;11.082;2023-04-30T05:04:22;20.40;;;13.80;;
77400;SDS011;66855;45.414;11.082;2023-04-30T05:06:48;20.30;;;13.40;;
77400;SDS011;66855;45.414;11.082;2023-04-30T05:09:15;20.50;;;13.20;;
77400;SDS011;66855;45.414;11.082;2023-04-30T05:11:42;19.40;;;13.10;;
77400;SDS011;66855;45.414;11.082;2023-04-30T05:14:10;16.60;;;12.70;;
77400;SDS011;66855;45.414;11.082;2023-04-30T05:16:36;19.40;;;14.30;;
77400;SDS011;66855;45.414;11.082;2023-04-30T05:19:04;20.40;;;13.70;;
77400;SDS011;66855;45.414;11.082;2023-04-30T05:21:30;17.70;;;13.20;;
77400;SDS011;66855;45.414;11.082;2023-04-30T05:24:00;18.90;;;13.00;;
77400;SDS011;66855;45.414;11.082;2023-04-30T05:26:27;20.10;;;13.90;;
77400;SDS011;66855;45.414;11.082;2023-04-30T05:28:54;18.20;;;13.00;;
77400;SDS011;66855;45.414;11.082;2023-04-30T05:31:22;15.70;;;12.10;;
77400;SDS011;66855;45.414;11.082;2023-04-30T05:33:49;19.40;;;13.00;;
77400;SDS011;66855;45.414;11.082;2023-04-30T05:36:16;18.10;;;13.50;;
77400;SDS011;66855;45.414;11.082;2023-04-30T05:38:43;18.00;;;13.80;;
77400;SDS011;66855;45.414;11.082;2023-04-30T05:41:10;21.50;;;13.60;;
77400;SDS011;66855;45.414;11.082;2023-04-30T05:43:38;17.40;;;13.80;;
77400;SDS011;66855;45.414;11.082;2023-04-30T05:46:05;22.90;;;14.10;;
77400;SDS011;66855;45.414;11.082;2023-04-30T05:48:32;19.80;;;13.00;;
77400;SDS011;66855;45.414;11.082;2023-04-30T05:50:58;19.50;;;14.50;;
77400;SDS011;66855;45.414;11.082;2023-04-30T05:53:25;19.30;;;12.90;;
77400;SDS011;66855;45.414;11.082;2023-04-30T05:55:52;19.70;;;13.30;;
77400;SDS011;66855;45.414;11.082;2023-04-30T05:58:19;18.60;;;13.00;;
77400;SDS011;66855;45.414;11.082;2023-04-30T06:00:47;17.90;;;13.00;;
77400;SDS011;66855;45.414;11.082;2023-04-30T06:03:18;18.20;;;13.10;;
77400;SDS011;66855;45.414;11.082;2023-04-30T06:05:46;19.90;;;14.00;;
77400;SDS011;66855;45.414;11.082;2023-04-30T06:08:13;20.50;;;13.10;;
77400;SDS011;66855;45.414;11.082;2023-04-30T06:10:39;17.30;;;13.10;;
77400;SDS011;66855;45.414;11.082;2023-04-30T06:13:07;19.30;;;12.90;;
77400;SDS011;66855;45.414;11.082;2023-04-30T06:15:34;16.90;;;12.40;;
77400;SDS011;66855;45.414;11.082;2023-04-30T06:18:01;21.20;;;13.50;;
77400;SDS011;66855;45.414;11.082;2023-04-30T06:20:27;19.20;;;13.20;;
77400;SDS011;66855;45.414;11.082;2023-04-30T06:22:54;18.40;;;13.00;;
77400;SDS011;66855;45.414;11.082;2023-04-30T06:25:21;16.80;;;12.90;;
77400;SDS011;66855;45.414;11.082;2023-04-30T06:27:47;18.00;;;12.70;;
77400;SDS011;66855;45.414;11.082;2023-04-30T06:30:15;18.80;;;13.60;;
77400;SDS011;66855;45.414;11.082;2023-04-30T06:32:41;18.60;;;14.10;;
77400;SDS011;66855;45.414;11.082;2023-04-30T06:35:08;19.60;;;14.50;;
77400;SDS011;66855;45.414;11.082;2023-04-30T06:37:35;22.10;;;14.10;;
77400;SDS011;66855;45.414;11.082;2023-04-30T06:40:03;20.90;;;14.80;;
77400;SDS011;66855;45.414;11.082;2023-04-30T06:42:32;21.70;;;14.60;;
77400;SDS011;66855;45.414;11.082;2023-04-30T06:45:02;18.70;;;13.30;;
77400;SDS011;66855;45.414;11.082;2023-04-30T06:47:29;17.80;;;12.80;;
77400;SDS011;66855;45.414;11.082;2023-04-30T06:50:04;21.60;;;13.70;;
77400;SDS011;66855;45.414;11.082;2023-04-30T06:52:31;19.00;;;13.00;;
77400;SDS011;66855;45.414;11.082;2023-04-30T06:54:58;18.70;;;11.80;;
77400;SDS011;66855;45.414;11.082;2023-04-30T06:57:25;24.40;;;12.60;;
77400;SDS011;66855;45.414;11.082;2023-04-30T06:59:52;15.00;;;9.40;;
77400;SDS011;66855;45.414;11.082;2023-04-30T07:02:20;12.00;;;9.60;;
77400;SDS011;66855;45.414;11.082;2023-04-30T07:04:48;13.50;;;8.90;;
77400;SDS011;66855;45.414;11.082;2023-04-30T07:07:15;11.00;;;7.90;;
77400;SDS011;66855;45.414;11.082;2023-04-30T07:09:41;15.00;;;8.60;;
77400;SDS011;66855;45.414;11.082;2023-04-30T07:12:08;14.80;;;9.70;;
77400;SDS011;66855;45.414;11.082;2023-04-30T07:17:03;12.40;;;8.50;;
77400;SDS011;66855;45.414;11.082;2023-04-30T07:19:30;12.00;;;9.00;;
77400;SDS011;66855;45.414;11.082;2023-04-30T07:21:58;10.20;;;7.50;;
77400;SDS011;66855;45.414;11.082;2023-04-30T07:24:24;12.60;;;8.40;;
77400;SDS011;66855;45.414;11.082;2023-04-30T07:26:51;10.00;;;7.20;;
77400;SDS011;66855;45.414;11.082;2023-04-30T07:29:18;13.00;;;8.30;;
77400;SDS011;66855;45.414;11.082;2023-04-30T07:31:45;10.40;;;7.60;;
77400;SDS011;66855;45.414;11.082;2023-04-30T07:34:11;12.30;;;7.90;;
77400;SDS011;66855;45.414;11.082;2023-04-30T07:36:38;11.00;;;8.30;;
77400;SDS011;66855;45.414;11.082;2023-04-30T07:39:05;10.80;;;7.50;;
77400;SDS011;66855;45.414;11.082;2023-04-30T07:41:33;12.10;;;7.50;;
77400;SDS011;66855;45.414;11.082;2023-04-30T07:44:00;10.40;;;7.80;;
77400;SDS011;66855;45.414;11.082;2023-04-30T07:46:27;10.00;;;7.40;;
77400;SDS011;66855;45.414;11.082;2023-04-30T07:48:54;10.60;;;8.20;;
77400;SDS011;66855;45.414;11.082;2023-04-30T07:51:20;11.90;;;8.10;;
77400;SDS011;66855;45.414;11.082;2023-04-30T07:53:47;14.80;;;8.90;;
77400;SDS011;66855;45.414;11.082;2023-04-30T07:56:14;11.00;;;7.80;;
77400;SDS011;66855;45.414;11.082;2023-04-30T07:58:41;13.30;;;8.20;;
77400;SDS011;66855;45.414;11.082;2023-04-30T08:01:08;9.60;;;7.40;;
77400;SDS011;66855;45.414;11.082;2023-04-30T08:03:36;12.80;;;8.40;;
77400;SDS011;66855;45.414;11.082;2023-04-30T08:06:03;13.60;;;8.20;;
77400;SDS011;66855;45.414;11.082;2023-04-30T08:08:31;13.10;;;8.70;;
77400;SDS011;66855;45.414;11.082;2023-04-30T08:10:58;15.10;;;8.70;;
77400;SDS011;66855;45.414;11.082;2023-04-30T08:13:24;10.60;;;8.70;;
77400;SDS011;66855;45.414;11.082;2023-04-30T08:15:51;14.00;;;8.70;;
77400;SDS011;66855;45.414;11.082;2023-04-30T08:18:18;12.30;;;9.00;;
77400;SDS011;66855;45.414;11.082;2023-04-30T08:20:45;12.20;;;8.90;;
77400;SDS011;66855;45.414;11.082;2023-04-30T08:23:11;12.90;;;8.80;;
77400;SDS011;66855;45.414;11.082;2023-04-30T08:25:38;11.60;;;9.20;;
77400;SDS011;66855;45.414;11.082;2023-04-30T08:28:05;12.10;;;9.10;;
77400;SDS011;66855;45.414;11.082;2023-04-30T08:30:32;10.20;;;8.40;;
77400;SDS011;66855;45.414;11.082;2023-04-30T08:32:58;12.30;;;9.10;;
77400;SDS011;66855;45.414;11.082;2023-04-30T08:35:25;10.30;;;8.80;;
77400;SDS011;66855;45.414;11.082;2023-04-30T08:37:55;11.80;;;8.60;;
77400;SDS011;66855;45.414;11.082;2023-04-30T08:40:22;10.10;;;7.60;;
77400;SDS011;66855;45.414;11.082;2023-04-30T08:43:09;9.30;;;6.80;;
77400;SDS011;66855;45.414;11.082;2023-04-30T08:45:37;8.30;;;6.30;;
77400;SDS011;66855;45.414;11.082;2023-04-30T08:48:04;8.70;;;6.50;;
77400;SDS011;66855;45.414;11.082;2023-04-30T08:50:31;10.80;;;6.20;;
77400;SDS011;66855;45.414;11.082;2023-04-30T08:52:58;8.50;;;5.60;;
77400;SDS011;66855;45.414;11.082;2023-04-30T08:55:25;10.80;;;6.50;;
77400;SDS011;66855;45.414;11.082;2023-04-30T08:57:53;9.00;;;5.90;;
77400;SDS011;66855;45.414;11.082;2023-04-30T09:00:19;9.20;;;5.80;;
77400;SDS011;66855;45.414;11.082;2023-04-30T09:02:47;7.50;;;6.20;;
77400;SDS011;66855;45.414;11.082;2023-04-30T09:05:15;7.90;;;4.70;;
77400;SDS011;66855;45.414;11.082;2023-04-30T09:07:42;6.50;;;5.00;;
77400;SDS011;66855;45.414;11.082;2023-04-30T09:10:31;4.70;;;3.60;;
77400;SDS011;66855;45.414;11.082;2023-04-30T09:13:03;4.60;;;4.10;;
77400;SDS011;66855;45.414;11.082;2023-04-30T09:15:32;5.10;;;3.70;;
77400;SDS011;66855;45.414;11.082;2023-04-30T09:18:13;7.40;;;3.70;;
77400;SDS011;66855;45.414;11.082;2023-04-30T09:20:55;4.50;;;3.40;;
77400;SDS011;66855;45.414;11.082;2023-04-30T09:23:24;3.70;;;2.50;;
77400;SDS011;66855;45.414;11.082;2023-04-30T09:25:50;5.00;;;3.30;;
77400;SDS011;66855;45.414;11.082;2023-04-30T09:28:18;3.20;;;2.30;;
77400;SDS011;66855;45.414;11.082;2023-04-30T09:30:49;2.20;;;1.60;;
77400;SDS011;66855;45.414;11.082;2023-04-30T09:33:16;4.70;;;1.80;;
77400;SDS011;66855;45.414;11.082;2023-04-30T09:35:43;1.90;;;1.80;;
77400;SDS011;66855;45.414;11.082;2023-04-30T09:38:30;2.50;;;1.40;;
77400;SDS011;66855;45.414;11.082;2023-04-30T09:40:58;3.70;;;1.50;;
77400;SDS011;66855;45.414;11.082;2023-04-30T09:43:26;2.70;;;1.60;;
77400;SDS011;66855;45.414;11.082;2023-04-30T09:45:54;2.60;;;1.70;;
77400;SDS011;66855;45.414;11.082;2023-04-30T09:48:21;1.30;;;1.10;;
77400;SDS011;66855;45.414;11.082;2023-04-30T09:50:49;2.60;;;1.50;;
77400;SDS011;66855;45.414;11.082;2023-04-30T09:53:16;1.40;;;1.30;;
77400;SDS011;66855;45.414;11.082;2023-04-30T09:55:44;1.20;;;1.10;;
77400;SDS011;66855;45.414;11.082;2023-04-30T09:58:13;2.10;;;1.00;;
77400;SDS011;66855;45.414;11.082;2023-04-30T10:00:42;1.40;;;1.00;;
77400;SDS011;66855;45.414;11.082;2023-04-30T10:03:11;1.20;;;1.10;;
77400;SDS011;66855;45.414;11.082;2023-04-30T10:05:43;3.00;;;1.20;;
77400;SDS011;66855;45.414;11.082;2023-04-30T10:10:45;1.90;;;0.90;;
77400;SDS011;66855;45.414;11.082;2023-04-30T10:13:19;1.30;;;1.10;;
77400;SDS011;66855;45.414;11.082;2023-04-30T10:15:47;1.30;;;1.20;;
77400;SDS011;66855;45.414;11.082;2023-04-30T10:18:17;1.50;;;1.10;;
77400;SDS011;66855;45.414;11.082;2023-04-30T10:20:45;1.10;;;0.80;;
77400;SDS011;66855;45.414;11.082;2023-04-30T10:23:13;3.10;;;1.50;;
77400;SDS011;66855;45.414;11.082;2023-04-30T10:25:40;1.40;;;0.80;;
77400;SDS011;66855;45.414;11.082;2023-04-30T10:28:07;1.10;;;1.00;;
77400;SDS011;66855;45.414;11.082;2023-04-30T10:30:35;1.80;;;0.90;;
77400;SDS011;66855;45.414;11.082;2023-04-30T10:35:44;1.10;;;1.00;;
77400;SDS011;66855;45.414;11.082;2023-04-30T10:38:16;3.40;;;1.30;;
77400;SDS011;66855;45.414;11.082;2023-04-30T10:40:47;1.30;;;1.20;;
77400;SDS011;66855;45.414;11.082;2023-04-30T10:43:16;2.20;;;1.30;;
77400;SDS011;66855;45.414;11.082;2023-04-30T10:45:44;0.90;;;0.90;;
77400;SDS011;66855;45.414;11.082;2023-04-30T10:48:12;1.00;;;0.80;;
77400;SDS011;66855;45.414;11.082;2023-04-30T10:50:41;1.40;;;1.00;;
77400;SDS011;66855;45.414;11.082;2023-04-30T10:53:13;1.30;;;1.00;;
77400;SDS011;66855;45.414;11.082;2023-04-30T10:55:46;2.00;;;1.10;;
77400;SDS011;66855;45.414;11.082;2023-04-30T10:58:24;1.90;;;0.90;;
77400;SDS011;66855;45.414;11.082;2023-04-30T11:01:01;1.80;;;0.90;;
77400;SDS011;66855;45.414;11.082;2023-04-30T11:03:30;0.90;;;0.80;;
77400;SDS011;66855;45.414;11.082;2023-04-30T11:05:59;1.10;;;1.00;;
77400;SDS011;66855;45.414;11.082;2023-04-30T11:08:35;1.10;;;0.80;;
77400;SDS011;66855;45.414;11.082;2023-04-30T11:11:02;1.40;;;0.80;;
77400;SDS011;66855;45.414;11.082;2023-04-30T11:13:41;1.10;;;0.90;;
77400;SDS011;66855;45.414;11.082;2023-04-30T11:16:10;2.10;;;1.10;;
77400;SDS011;66855;45.414;11.082;2023-04-30T11:18:43;1.50;;;0.80;;
77400;SDS011;66855;45.414;11.082;2023-04-30T11:21:12;1.30;;;1.00;;
77400;SDS011;66855;45.414;11.082;2023-04-30T11:23:42;1.60;;;0.70;;
77400;SDS011;66855;45.414;11.082;2023-04-30T11:26:09;1.10;;;0.60;;
77400;SDS011;66855;45.414;11.082;2023-04-30T11:28:36;1.20;;;0.80;;
77400;SDS011;66855;45.414;11.082;2023-04-30T11:31:04;2.50;;;1.00;;
77400;SDS011;66855;45.414;11.082;2023-04-30T11:33:33;2.00;;;0.70;;
77400;SDS011;66855;45.414;11.082;2023-04-30T11:36:00;1.30;;;0.70;;
77400;SDS011;66855;45.414;11.082;2023-04-30T11:38:28;2.30;;;1.00;;
77400;SDS011;66855;45.414;11.082;2023-04-30T11:41:02;1.30;;;1.20;;
77400;SDS011;66855;45.414;11.082;2023-04-30T11:43:30;1.30;;;1.00;;
77400;SDS011;66855;45.414;11.082;2023-04-30T11:48:40;1.20;;;1.10;;
77400;SDS011;66855;45.414;11.082;2023-04-30T11:51:15;1.20;;;0.80;;
77400;SDS011;66855;45.414;11.082;2023-04-30T11:53:47;0.80;;;0.70;;
77400;SDS011;66855;45.414;11.082;2023-04-30T11:56:18;1.10;;;0.70;;
77400;SDS011;66855;45.414;11.082;2023-04-30T11:58:50;1.70;;;0.70;;
77400;SDS011;66855;45.414;11.082;2023-04-30T12:01:24;1.00;;;0.70;;
77400;SDS011;66855;45.414;11.082;2023-04-30T12:03:56;1.80;;;0.70;;
77400;SDS011;66855;45.414;11.082;2023-04-30T12:06:24;1.10;;;0.70;;
77400;SDS011;66855;45.414;11.082;2023-04-30T12:08:59;1.50;;;1.10;;
77400;SDS011;66855;45.414;11.082;2023-04-30T12:11:31;0.80;;;0.80;;
77400;SDS011;66855;45.414;11.082;2023-04-30T12:14:00;1.90;;;1.10;;
77400;SDS011;66855;45.414;11.082;2023-04-30T12:16:42;3.90;;;0.90;;
77400;SDS011;66855;45.414;11.082;2023-04-30T12:19:32;1.20;;;1.00;;
77400;SDS011;66855;45.414;11.082;2023-04-30T12:21:59;1.70;;;0.80;;
77400;SDS011;66855;45.414;11.082;2023-04-30T12:24:29;0.80;;;0.80;;
77400;SDS011;66855;45.414;11.082;2023-04-30T12:26:58;1.70;;;1.00;;
77400;SDS011;66855;45.414;11.082;2023-04-30T12:29:29;1.60;;;1.10;;
77400;SDS011;66855;45.414;11.082;2023-04-30T12:32:00;1.00;;;0.90;;
77400;SDS011;66855;45.414;11.082;2023-04-30T12:34:27;1.10;;;0.80;;
77400;SDS011;66855;45.414;11.082;2023-04-30T12:36:59;1.70;;;0.80;;
77400;SDS011;66855;45.414;11.082;2023-04-30T12:39:45;1.20;;;0.80;;
77400;SDS011;66855;45.414;11.082;2023-04-30T12:42:31;1.20;;;0.70;;
77400;SDS011;66855;45.414;11.082;2023-04-30T12:45:03;1.40;;;1.00;;
77400;SDS011;66855;45.414;11.082;2023-04-30T12:48:30;1.40;;;0.60;;
77400;SDS011;66855;45.414;11.082;2023-04-30T12:51:11;0.50;;;0.50;;
77400;SDS011;66855;45.414;11.082;2023-04-30T12:53:44;1.80;;;0.70;;
77400;SDS011;66855;45.414;11.082;2023-04-30T12:56:13;1.30;;;0.60;;
77400;SDS011;66855;45.414;11.082;2023-04-30T12:58:55;0.90;;;0.90;;
77400;SDS011;66855;45.414;11.082;2023-04-30T13:01:23;1.60;;;0.80;;
77400;SDS011;66855;45.414;11.082;2023-04-30T13:03:58;0.80;;;0.70;;
77400;SDS011;66855;45.414;11.082;2023-04-30T13:06:40;1.00;;;0.60;;
77400;SDS011;66855;45.414;11.082;2023-04-30T13:09:16;0.90;;;0.70;;
77400;SDS011;66855;45.414;11.082;2023-04-30T13:11:43;0.60;;;0.40;;
77400;SDS011;66855;45.414;11.082;2023-04-30T13:14:15;0.60;;;0.60;;
77400;SDS011;66855;45.414;11.082;2023-04-30T13:16:43;0.80;;;0.80;;
77400;SDS011;66855;45.414;11.082;2023-04-30T13:19:10;1.00;;;0.60;;
77400;SDS011;66855;45.414;11.082;2023-04-30T13:21:37;0.90;;;0.70;;
77400;SDS011;66855;45.414;11.082;2023-04-30T13:24:04;0.60;;;0.50;;
77400;SDS011;66855;45.414;11.082;2023-04-30T13:26:33;1.00;;;0.70;;
77400;SDS011;66855;45.414;11.082;2023-04-30T13:29:01;1.00;;;0.70;;
77400;SDS011;66855;45.414;11.082;2023-04-30T13:31:35;1.10;;;0.60;;
77400;SDS011;66855;45.414;11.082;2023-04-30T13:34:02;0.50;;;0.50;;
77400;SDS011;66855;45.414;11.082;2023-04-30T13:36:30;1.00;;;0.70;;
77400;SDS011;66855;45.414;11.082;2023-04-30T13:38:58;0.70;;;0.70;;
77400;SDS011;66855;45.414;11.082;2023-04-30T13:41:25;1.30;;;0.80;;
77400;SDS011;66855;45.414;11.082;2023-04-30T13:43:52;0.70;;;0.70;;
77400;SDS011;66855;45.414;11.082;2023-04-30T13:46:19;0.50;;;0.50;;
77400;SDS011;66855;45.414;11.082;2023-04-30T13:48:46;1.40;;;0.80;;
77400;SDS011;66855;45.414;11.082;2023-04-30T13:51:15;1.70;;;0.90;;
77400;SDS011;66855;45.414;11.082;2023-04-30T13:53:43;1.40;;;0.90;;
77400;SDS011;66855;45.414;11.082;2023-04-30T13:56:13;1.20;;;0.90;;
77400;SDS011;66855;45.414;11.082;2023-04-30T13:58:56;0.80;;;0.80;;
77400;SDS011;66855;45.414;11.082;2023-04-30T14:01:23;0.90;;;0.60;;
77400;SDS011;66855;45.414;11.082;2023-04-30T14:03:50;0.90;;;0.70;;
77400;SDS011;66855;45.414;11.082;2023-04-30T14:06:21;1.20;;;0.80;;
77400;SDS011;66855;45.414;11.082;2023-04-30T14:08:51;0.80;;;0.80;;
77400;SDS011;66855;45.414;11.082;2023-04-30T14:11:19;1.10;;;1.00;;
77400;SDS011;66855;45.414;11.082;2023-04-30T14:13:48;2.10;;;0.70;;
77400;SDS011;66855;45.414;11.082;2023-04-30T14:16:19;1.20;;;0.80;;
77400;SDS011;66855;45.414;11.082;2023-04-30T14:18:48;1.50;;;0.60;;
77400;SDS011;66855;45.414;11.082;2023-04-30T14:21:20;0.90;;;0.90;;
77400;SDS011;66855;45.414;11.082;2023-04-30T14:23:51;1.00;;;0.80;;
77400;SDS011;66855;45.414;11.082;2023-04-30T14:28:52;1.10;;;0.90;;
77400;SDS011;66855;45.414;11.082;2023-04-30T14:31:21;1.20;;;1.00;;
77400;SDS011;66855;45.414;11.082;2023-04-30T14:33:49;1.20;;;0.80;;
77400;SDS011;66855;45.414;11.082;2023-04-30T14:36:18;1.90;;;0.80;;
77400;SDS011;66855;45.414;11.082;2023-04-30T14:38:50;1.60;;;1.00;;
77400;SDS011;66855;45.414;11.082;2023-04-30T14:41:23;2.30;;;1.10;;
77400;SDS011;66855;45.414;11.082;2023-04-30T14:44:04;2.90;;;1.20;;
77400;SDS011;66855;45.414;11.082;2023-04-30T14:46:33;1.40;;;1.20;;
77400;SDS011;66855;45.414;11.082;2023-04-30T14:49:01;2.40;;;1.30;;
77400;SDS011;66855;45.414;11.082;2023-04-30T14:51:47;1.50;;;1.40;;
77400;SDS011;66855;45.414;11.082;2023-04-30T14:54:20;1.30;;;1.20;;
77400;SDS011;66855;45.414;11.082;2023-04-30T14:57:05;2.10;;;1.50;;
77400;SDS011;66855;45.414;11.082;2023-04-30T14:59:56;2.50;;;1.50;;
77400;SDS011;66855;45.414;11.082;2023-04-30T15:02:39;2.20;;;1.20;;
77400;SDS011;66855;45.414;11.082;2023-04-30T15:05:07;2.40;;;1.40;;
77400;SDS011;66855;45.414;11.082;2023-04-30T15:10:02;2.00;;;1.30;;